sensor_id;sensor_type;location;lat;lon;timestamp;pressure;altitude;pressure_sealevel;temperature;humidity
21153;BME280;10734;44.792;20.482;2023-01-19T01:10:35;98267.38;;;11.37;nan
21153;BME280;10734;44.792;20.482;2023-01-19T01:13:02;98262.78;;;11.49;nan
21153;BME280;10734;44.792;20.482;2023-01-19T01:15:52;98262.94;;;11.57;nan
21153;BME280;10734;44.792;20.482;2023-01-19T01:18:21;98255.56;;;11.59;nan
21153;BME280;10734;44.792;20.482;2023-01-19T01:20:49;98267.09;;;11.71;nan
21153;BME280;10734;44.792;20.482;2023-01-19T01:23:17;98265.56;;;11.78;nan
21153;BME280;10734;44.792;20.482;2023-01-19T01:25:48;98270.81;;;11.80;nan
21153;BME280;10734;44.792;20.482;2023-01-19T01:28:16;98269.47;;;11.95;nan
21153;BME280;10734;44.792;20.482;2023-01-19T01:30:42;98285.81;;;12.03;nan
21153;BME280;10734;44.792;20.482;2023-01-19T01:33:10;98295.31;;;11.98;nan
21153;BME280;10734;44.792;20.482;2023-01-19T01:35:39;98290.91;;;11.97;nan
21153;BME280;10734;44.792;20.482;2023-01-19T01:38:08;98290.06;;;11.96;nan
21153;BME280;10734;44.792;20.482;2023-01-19T01:40:39;98273.88;;;11.96;nan
21153;BME280;10734;44.792;20.482;2023-01-19T01:43:13;98269.19;;;11.98;nan
21153;BME280;10734;44.792;20.482;2023-01-19T01:45:41;98258.28;;;12.00;nan
21153;BME280;10734;44.792;20.482;2023-01-19T01:50:57;98264.06;;;11.95;nan
21153;BME280;10734;44.792;20.482;2023-01-19T01:53:50;98267.47;;;11.88;nan
21153;BME280;10734;44.792;20.482;2023-01-19T01:56:23;98284.16;;;11.81;nan
21153;BME280;10734;44.792;20.482;2023-01-19T01:58:53;98275.50;;;11.78;nan
21153;BME280;10734;44.792;20.482;2023-01-19T02:01:21;98275.63;;;11.76;nan
21153;BME280;10734;44.792;20.482;2023-01-19T02:04:08;98282.44;;;11.71;nan
21153;BME280;10734;44.792;20.482;2023-01-19T02:06:37;98285.84;;;11.73;nan
21153;BME280;10734;44.792;20.482;2023-01-19T02:09:25;98297.31;;;11.65;nan
21153;BME280;10734;44.792;20.482;2023-01-19T02:12:15;98301.41;;;11.59;nan
21153;BME280;10734;44.792;20.482;2023-01-19T02:15:02;98313.56;;;11.54;nan
21153;BME280;10734;44.792;20.482;2023-01-19T02:17:30;98320.50;;;11.47;nan
21153;BME280;10734;44.792;20.482;2023-01-19T02:19:58;98302.88;;;11.43;nan
21153;BME280;10734;44.792;20.482;2023-01-19T02:22:32;98271.66;;;11.40;nan
21153;BME280;10734;44.792;20.482;2023-01-19T02:25:05;98262.13;;;11.36;nan
21153;BME280;10734;44.792;20.482;2023-01-19T02:27:34;98269.50;;;11.34;nan
21153;BME280;10734;44.792;20.482;2023-01-19T02:30:02;98265.25;;;11.31;nan
21153;BME280;10734;44.792;20.482;2023-01-19T02:32:29;98254.84;;;11.27;nan
21153;BME280;10734;44.792;20.482;2023-01-19T02:34:58;98254.28;;;11.23;nan
21153;BME280;10734;44.792;20.482;2023-01-19T02:37:27;98250.47;;;11.26;nan
21153;BME280;10734;44.792;20.482;2023-01-19T02:40:00;98245.06;;;11.26;nan
21153;BME280;10734;44.792;20.482;2023-01-19T02:42:41;98247.50;;;11.29;nan
21153;BME280;10734;44.792;20.482;2023-01-19T02:45:13;98257.16;;;11.31;nan
21153;BME280;10734;44.792;20.482;2023-01-19T02:47:49;98251.56;;;11.23;nan
21153;BME280;10734;44.792;20.482;2023-01-19T02:56:38;98283.75;;;11.15;nan
21153;BME280;10734;44.792;20.482;2023-01-19T03:11:13;98267.91;;;11.22;nan
21153;BME280;10734;44.792;20.482;2023-01-19T03:16:47;98278.66;;;11.22;nan
21153;BME280;10734;44.792;20.482;2023-01-19T03:22:06;98279.47;;;11.12;nan
21153;BME280;10734;44.792;20.482;2023-01-19T03:24:39;98284.25;;;11.09;nan
21153;BME280;10734;44.792;20.482;2023-01-19T03:27:15;98277.03;;;11.09;nan
21153;BME280;10734;44.792;20.482;2023-01-19T03:29:49;98316.59;;;11.09;nan
21153;BME280;10734;44.792;20.482;2023-01-19T03:32:22;98268.50;;;11.04;nan
21153;BME280;10734;44.792;20.482;2023-01-19T03:34:56;98259.97;;;10.99;nan
21153;BME280;10734;44.792;20.482;2023-01-19T03:37:28;98283.63;;;10.96;nan
21153;BME280;10734;44.792;20.482;2023-01-19T03:39:58;98227.78;;;10.98;nan
21153;BME280;10734;44.792;20.482;2023-01-19T03:42:26;98223.63;;;10.94;nan
21153;BME280;10734;44.792;20.482;2023-01-19T03:49:52;98240.34;;;10.87;nan
21153;BME280;10734;44.792;20.482;2023-01-19T03:52:29;98296.16;;;10.85;nan
21153;BME280;10734;44.792;20.482;2023-01-19T03:55:03;98271.06;;;10.85;nan
21153;BME280;10734;44.792;20.482;2023-01-19T04:02:27;98279.25;;;10.83;nan
21153;BME280;10734;44.792;20.482;2023-01-19T04:14:47;98318.72;;;10.73;nan
21153;BME280;10734;44.792;20.482;2023-01-19T07:49:02;98418.31;;;10.41;nan
21153;BME280;10734;44.792;20.482;2023-01-19T07:53:55;98430.41;;;10.58;nan
21153;BME280;10734;44.792;20.482;2023-01-19T07:56:22;98395.63;;;10.66;nan
21153;BME280;10734;44.792;20.482;2023-01-19T07:58:50;98392.16;;;10.75;nan
21153;BME280;10734;44.792;20.482;2023-01-19T08:01:18;98395.78;;;10.85;nan
21153;BME280;10734;44.792;20.482;2023-01-19T08:03:46;98404.06;;;10.94;nan
21153;BME280;10734;44.792;20.482;2023-01-19T08:06:28;98415.06;;;11.02;nan
21153;BME280;10734;44.792;20.482;2023-01-19T08:08:57;98395.19;;;11.14;nan
21153;BME280;10734;44.792;20.482;2023-01-19T08:11:25;98383.59;;;11.23;nan
21153;BME280;10734;44.792;20.482;2023-01-19T08:13:53;98393.28;;;11.26;nan
21153;BME280;10734;44.792;20.482;2023-01-19T08:16:22;98397.50;;;11.40;nan
21153;BME280;10734;44.792;20.482;2023-01-19T08:18:49;98404.13;;;11.35;nan
21153;BME280;10734;44.792;20.482;2023-01-19T08:21:17;98397.66;;;11.48;nan
21153;BME280;10734;44.792;20.482;2023-01-19T08:23:55;98394.19;;;11.57;nan
21153;BME280;10734;44.792;20.482;2023-01-19T08:26:41;98386.56;;;11.62;nan
21153;BME280;10734;44.792;20.482;2023-01-19T08:29:08;98389.97;;;11.64;nan
21153;BME280;10734;44.792;20.482;2023-01-19T08:31:34;98385.31;;;11.66;nan
21153;BME280;10734;44.792;20.482;2023-01-19T08:34:01;98391.03;;;11.73;nan
21153;BME280;10734;44.792;20.482;2023-01-19T08:36:28;98388.19;;;11.74;nan
21153;BME280;10734;44.792;20.482;2023-01-19T08:38:55;98384.22;;;11.78;nan
21153;BME280;10734;44.792;20.482;2023-01-19T08:41:22;98391.41;;;11.89;nan
21153;BME280;10734;44.792;20.482;2023-01-19T08:43:49;98403.06;;;11.90;nan
21153;BME280;10734;44.792;20.482;2023-01-19T08:46:16;98413.25;;;11.86;nan
21153;BME280;10734;44.792;20.482;2023-01-19T08:48:46;98410.81;;;11.83;nan
21153;BME280;10734;44.792;20.482;2023-01-19T08:51:16;98413.28;;;11.75;nan
21153;BME280;10734;44.792;20.482;2023-01-19T08:53:43;98418.22;;;12.21;nan
21153;BME280;10734;44.792;20.482;2023-01-19T08:56:10;98437.75;;;12.35;nan
21153;BME280;10734;44.792;20.482;2023-01-19T08:59:00;98431.88;;;12.29;nan
21153;BME280;10734;44.792;20.482;2023-01-19T09:01:36;98441.28;;;12.35;nan
21153;BME280;10734;44.792;20.482;2023-01-19T09:04:03;98441.47;;;12.43;nan
21153;BME280;10734;44.792;20.482;2023-01-19T09:06:30;98448.75;;;12.62;nan
21153;BME280;10734;44.792;20.482;2023-01-19T09:08:58;98451.25;;;12.94;nan
21153;BME280;10734;44.792;20.482;2023-01-19T09:11:24;98458.50;;;13.03;nan
21153;BME280;10734;44.792;20.482;2023-01-19T09:13:52;98450.97;;;13.07;nan
21153;BME280;10734;44.792;20.482;2023-01-19T09:16:19;98446.28;;;13.09;nan
21153;BME280;10734;44.792;20.482;2023-01-19T09:18:46;98450.44;;;13.52;nan
21153;BME280;10734;44.792;20.482;2023-01-19T09:21:13;98454.53;;;13.76;nan
21153;BME280;10734;44.792;20.482;2023-01-19T09:23:40;98450.34;;;14.38;nan
21153;BME280;10734;44.792;20.482;2023-01-19T09:26:08;98446.25;;;14.89;nan
21153;BME280;10734;44.792;20.482;2023-01-19T09:28:36;98451.22;;;15.29;nan
21153;BME280;10734;44.792;20.482;2023-01-19T09:31:07;98463.22;;;15.63;nan
21153;BME280;10734;44.792;20.482;2023-01-19T09:33:34;98466.28;;;16.03;nan
21153;BME280;10734;44.792;20.482;2023-01-19T09:36:01;98450.50;;;15.81;nan
21153;BME280;10734;44.792;20.482;2023-01-19T09:38:28;98446.91;;;16.32;nan
21153;BME280;10734;44.792;20.482;2023-01-19T09:40:58;98451.53;;;16.74;nan
21153;BME280;10734;44.792;20.482;2023-01-19T09:43:40;98445.09;;;16.41;nan
21153;BME280;10734;44.792;20.482;2023-01-19T09:46:15;98449.09;;;17.14;nan
21153;BME280;10734;44.792;20.482;2023-01-19T09:48:51;98438.94;;;17.57;nan
21153;BME280;10734;44.792;20.482;2023-01-19T09:51:22;98437.91;;;17.33;nan
21153;BME280;10734;44.792;20.482;2023-01-19T09:56:19;98438.88;;;16.23;nan
21153;BME280;10734;44.792;20.482;2023-01-19T09:58:47;98424.47;;;16.65;nan
21153;BME280;10734;44.792;20.482;2023-01-19T10:01:23;98459.31;;;16.35;nan
21153;BME280;10734;44.792;20.482;2023-01-19T10:04:07;98454.72;;;16.70;nan
21153;BME280;10734;44.792;20.482;2023-01-19T10:06:35;98472.59;;;16.46;nan
21153;BME280;10734;44.792;20.482;2023-01-19T10:09:13;98456.31;;;16.46;nan
21153;BME280;10734;44.792;20.482;2023-01-19T10:20:26;98457.66;;;16.85;nan
21153;BME280;10734;44.792;20.482;2023-01-19T10:22:55;98457.59;;;17.11;nan
21153;BME280;10734;44.792;20.482;2023-01-19T10:25:25;98461.50;;;17.16;nan
21153;BME280;10734;44.792;20.482;2023-01-19T10:27:52;98435.13;;;16.92;nan
21153;BME280;10734;44.792;20.482;2023-01-19T10:30:25;98453.03;;;16.69;nan
21153;BME280;10734;44.792;20.482;2023-01-19T10:32:53;98441.53;;;16.83;nan
21153;BME280;10734;44.792;20.482;2023-01-19T10:35:22;98435.97;;;17.01;nan
21153;BME280;10734;44.792;20.482;2023-01-19T10:37:52;98444.88;;;17.52;nan
21153;BME280;10734;44.792;20.482;2023-01-19T10:42:52;98469.22;;;17.62;nan
21153;BME280;10734;44.792;20.482;2023-01-19T10:45:23;98477.97;;;16.98;nan
21153;BME280;10734;44.792;20.482;2023-01-19T10:47:52;98491.72;;;16.63;nan
21153;BME280;10734;44.792;20.482;2023-01-19T10:52:51;98493.97;;;15.89;nan
21153;BME280;10734;44.792;20.482;2023-01-19T10:57:51;98476.00;;;16.74;nan
21153;BME280;10734;44.792;20.482;2023-01-19T11:00:39;98478.81;;;16.65;nan
21153;BME280;10734;44.792;20.482;2023-01-19T11:03:28;98479.47;;;16.93;nan
21153;BME280;10734;44.792;20.482;2023-01-19T11:08:46;98474.50;;;16.54;nan
21153;BME280;10734;44.792;20.482;2023-01-19T11:11:13;98474.22;;;16.99;nan
21153;BME280;10734;44.792;20.482;2023-01-19T11:13:41;98483.94;;;17.10;nan
21153;BME280;10734;44.792;20.482;2023-01-19T11:16:26;98504.56;;;17.37;nan
21153;BME280;10734;44.792;20.482;2023-01-19T11:18:55;98497.19;;;16.37;nan
21153;BME280;10734;44.792;20.482;2023-01-19T11:21:26;98508.06;;;16.11;nan
21153;BME280;10734;44.792;20.482;2023-01-19T11:23:59;98509.91;;;16.36;nan
21153;BME280;10734;44.792;20.482;2023-01-19T11:26:33;98507.97;;;16.20;nan
21153;BME280;10734;44.792;20.482;2023-01-19T11:29:02;98509.81;;;15.94;nan
21153;BME280;10734;44.792;20.482;2023-01-19T11:31:32;98514.69;;;15.90;nan
21153;BME280;10734;44.792;20.482;2023-01-19T11:34:04;98530.47;;;15.59;nan
21153;BME280;10734;44.792;20.482;2023-01-19T11:36:33;98524.75;;;15.26;nan
21153;BME280;10734;44.792;20.482;2023-01-19T11:39:20;98520.47;;;15.24;nan
21153;BME280;10734;44.792;20.482;2023-01-19T11:41:52;98527.16;;;15.11;nan
21153;BME280;10734;44.792;20.482;2023-01-19T11:44:23;98516.00;;;14.87;nan
21153;BME280;10734;44.792;20.482;2023-01-19T11:46:54;98537.97;;;14.84;nan
21153;BME280;10734;44.792;20.482;2023-01-19T11:49:26;98553.38;;;14.83;nan
21153;BME280;10734;44.792;20.482;2023-01-19T11:52:12;98547.66;;;14.59;nan
21153;BME280;10734;44.792;20.482;2023-01-19T11:57:34;98567.53;;;14.20;nan
21153;BME280;10734;44.792;20.482;2023-01-19T12:00:03;98557.69;;;14.19;nan
21153;BME280;10734;44.792;20.482;2023-01-19T12:02:45;98566.13;;;14.16;nan
21153;BME280;10734;44.792;20.482;2023-01-19T12:05:15;98571.28;;;14.00;nan
21153;BME280;10734;44.792;20.482;2023-01-19T12:07:44;98578.56;;;13.90;nan
21153;BME280;10734;44.792;20.482;2023-01-19T12:10:21;98588.38;;;13.81;nan
21153;BME280;10734;44.792;20.482;2023-01-19T12:12:51;98610.84;;;13.72;nan
